Terminal Aerodrome Forecast
Issued by NWS

Home | Current Version | Previous Version | Text Only | Print | Product List | Glossary On
Versions: 1 2 3 4 5 6 7 8 9 10 11 12 13 14 15
311
FTUS42 TJSJ 282334
TAFKPK
TAF
TKPK 282334Z 2900/2924 05011KT P6SM VCSH FEW017
     FM290400 04008KT P6SM FEW018
     FM291300 07014KT P6SM VCSH SCT018
     FM292000 05013KT P6SM VCSH SCT018 BKN025
      AMD NOT SKED 2902/2911=

USA.gov is the U.S. government's official web portal to all federal, state and local government web resources and services.